Terminal Aerodrome Forecast
Issued by NWS

Home | Current Version | Previous Version | Text Only | Print | Product List | Glossary On
Versions: 1 2 3 4 5 6 7 8 9 10 11 12 13 14 15
000
FTUS44 KLZK 252200 AAA
TAFLLQ
TAF AMD
KLLQ 252229Z 2522/2618 30014G23KT P6SM SCT050 OVC100
     FM260200 32008G15KT P6SM BKN050
     FM260800 30007KT P6SM SCT020 BKN050
     FM261500 29006KT P6SM SCT050=

USA.gov is the U.S. government's official web portal to all federal, state and local government web resources and services.